sensor_id;sensor_type;location;lat;lon;timestamp;P1;durP1;ratioP1;P2;durP2;ratioP2
12267;SDS011;6196;48.398;11.736;2023-03-23T00:01:06;3.77;;;3.33;;
12267;SDS011;6196;48.398;11.736;2023-03-23T00:03:44;4.90;;;3.57;;
12267;SDS011;6196;48.398;11.736;2023-03-23T00:06:12;4.90;;;3.90;;
12267;SDS011;6196;48.398;11.736;2023-03-23T00:08:42;4.60;;;3.93;;
12267;SDS011;6196;48.398;11.736;2023-03-23T00:11:15;4.57;;;4.00;;
12267;SDS011;6196;48.398;11.736;2023-03-23T00:13:47;4.10;;;3.40;;
12267;SDS011;6196;48.398;11.736;2023-03-23T00:16:18;5.77;;;3.67;;
12267;SDS011;6196;48.398;11.736;2023-03-23T00:18:54;4.77;;;3.77;;
12267;SDS011;6196;48.398;11.736;2023-03-23T00:21:25;5.37;;;3.70;;
12267;SDS011;6196;48.398;11.736;2023-03-23T00:23:59;4.70;;;4.13;;
12267;SDS011;6196;48.398;11.736;2023-03-23T00:26:27;4.20;;;3.80;;
12267;SDS011;6196;48.398;11.736;2023-03-23T00:28:54;4.23;;;3.73;;
12267;SDS011;6196;48.398;11.736;2023-03-23T00:31:21;4.50;;;3.80;;
12267;SDS011;6196;48.398;11.736;2023-03-23T00:33:47;5.57;;;3.97;;
12267;SDS011;6196;48.398;11.736;2023-03-23T00:36:13;4.23;;;3.83;;
12267;SDS011;6196;48.398;11.736;2023-03-23T00:38:39;4.83;;;3.63;;
12267;SDS011;6196;48.398;11.736;2023-03-23T00:41:09;5.13;;;4.13;;
12267;SDS011;6196;48.398;11.736;2023-03-23T00:43:36;5.37;;;4.00;;
12267;SDS011;6196;48.398;11.736;2023-03-23T00:46:04;4.60;;;3.83;;
12267;SDS011;6196;48.398;11.736;2023-03-23T00:48:34;9.07;;;5.50;;
12267;SDS011;6196;48.398;11.736;2023-03-23T00:51:06;6.93;;;5.30;;
12267;SDS011;6196;48.398;11.736;2023-03-23T00:53:36;6.97;;;5.53;;
12267;SDS011;6196;48.398;11.736;2023-03-23T00:56:02;6.00;;;4.00;;
12267;SDS011;6196;48.398;11.736;2023-03-23T00:58:29;8.50;;;4.03;;
12267;SDS011;6196;48.398;11.736;2023-03-23T01:00:54;4.63;;;3.50;;
12267;SDS011;6196;48.398;11.736;2023-03-23T01:03:21;5.60;;;3.87;;
12267;SDS011;6196;48.398;11.736;2023-03-23T01:05:50;5.30;;;4.20;;
12267;SDS011;6196;48.398;11.736;2023-03-23T01:08:18;4.10;;;3.70;;
12267;SDS011;6196;48.398;11.736;2023-03-23T01:10:45;5.57;;;3.50;;
12267;SDS011;6196;48.398;11.736;2023-03-23T01:13:11;5.60;;;4.00;;
12267;SDS011;6196;48.398;11.736;2023-03-23T01:15:38;4.37;;;3.97;;
12267;SDS011;6196;48.398;11.736;2023-03-23T01:18:04;5.00;;;3.53;;
12267;SDS011;6196;48.398;11.736;2023-03-23T01:20:31;4.23;;;3.23;;
12267;SDS011;6196;48.398;11.736;2023-03-23T01:22:57;4.53;;;3.60;;
12267;SDS011;6196;48.398;11.736;2023-03-23T01:25:31;4.17;;;3.63;;
12267;SDS011;6196;48.398;11.736;2023-03-23T01:28:01;6.03;;;3.53;;
12267;SDS011;6196;48.398;11.736;2023-03-23T01:30:27;5.63;;;3.60;;
12267;SDS011;6196;48.398;11.736;2023-03-23T01:32:53;6.37;;;3.50;;
12267;SDS011;6196;48.398;11.736;2023-03-23T01:35:20;3.87;;;3.20;;
12267;SDS011;6196;48.398;11.736;2023-03-23T01:37:46;4.50;;;3.87;;
12267;SDS011;6196;48.398;11.736;2023-03-23T01:40:13;4.17;;;3.60;;
12267;SDS011;6196;48.398;11.736;2023-03-23T01:42:40;5.17;;;3.77;;
12267;SDS011;6196;48.398;11.736;2023-03-23T01:47:57;4.70;;;3.60;;
12267;SDS011;6196;48.398;11.736;2023-03-23T01:53:42;4.53;;;3.63;;
12267;SDS011;6196;48.398;11.736;2023-03-23T01:56:14;4.90;;;4.07;;
12267;SDS011;6196;48.398;11.736;2023-03-23T01:58:46;4.17;;;3.77;;
12267;SDS011;6196;48.398;11.736;2023-03-23T02:01:13;5.07;;;3.70;;
12267;SDS011;6196;48.398;11.736;2023-03-23T02:03:41;4.40;;;4.00;;
12267;SDS011;6196;48.398;11.736;2023-03-23T02:06:10;6.73;;;3.93;;
12267;SDS011;6196;48.398;11.736;2023-03-23T02:08:36;5.10;;;4.10;;
12267;SDS011;6196;48.398;11.736;2023-03-23T02:11:17;4.87;;;4.37;;
12267;SDS011;6196;48.398;11.736;2023-03-23T02:13:45;4.50;;;4.07;;
12267;SDS011;6196;48.398;11.736;2023-03-23T02:22:06;4.33;;;3.47;;
12267;SDS011;6196;48.398;11.736;2023-03-23T02:25:18;6.43;;;4.53;;
12267;SDS011;6196;48.398;11.736;2023-03-23T02:28:11;5.03;;;3.80;;
12267;SDS011;6196;48.398;11.736;2023-03-23T02:34:17;4.47;;;4.00;;
12267;SDS011;6196;48.398;11.736;2023-03-23T02:36:53;5.00;;;4.40;;
12267;SDS011;6196;48.398;11.736;2023-03-23T02:42:10;4.43;;;4.03;;
12267;SDS011;6196;48.398;11.736;2023-03-23T02:44:42;5.23;;;4.50;;
12267;SDS011;6196;48.398;11.736;2023-03-23T02:47:23;5.10;;;4.47;;
12267;SDS011;6196;48.398;11.736;2023-03-23T02:49:53;4.80;;;4.40;;
12267;SDS011;6196;48.398;11.736;2023-03-23T02:52:21;5.77;;;4.27;;
12267;SDS011;6196;48.398;11.736;2023-03-23T02:54:52;5.47;;;4.60;;
12267;SDS011;6196;48.398;11.736;2023-03-23T02:57:21;5.97;;;4.60;;
12267;SDS011;6196;48.398;11.736;2023-03-23T02:59:48;5.10;;;4.50;;
12267;SDS011;6196;48.398;11.736;2023-03-23T03:02:18;6.13;;;4.73;;
12267;SDS011;6196;48.398;11.736;2023-03-23T03:07:34;5.57;;;5.03;;
12267;SDS011;6196;48.398;11.736;2023-03-23T03:10:18;6.50;;;5.13;;
12267;SDS011;6196;48.398;11.736;2023-03-23T03:15:36;5.27;;;4.77;;
12267;SDS011;6196;48.398;11.736;2023-03-23T03:21:06;5.30;;;4.63;;
12267;SDS011;6196;48.398;11.736;2023-03-23T03:23:36;5.90;;;5.27;;
12267;SDS011;6196;48.398;11.736;2023-03-23T03:26:06;5.10;;;4.60;;
12267;SDS011;6196;48.398;11.736;2023-03-23T03:28:36;5.50;;;5.00;;
12267;SDS011;6196;48.398;11.736;2023-03-23T03:31:02;5.63;;;4.30;;
12267;SDS011;6196;48.398;11.736;2023-03-23T03:33:30;5.37;;;4.87;;
12267;SDS011;6196;48.398;11.736;2023-03-23T03:36:02;4.87;;;4.43;;
12267;SDS011;6196;48.398;11.736;2023-03-23T03:38:44;5.13;;;4.33;;
12267;SDS011;6196;48.398;11.736;2023-03-23T03:41:13;6.23;;;4.30;;
12267;SDS011;6196;48.398;11.736;2023-03-23T03:43:40;5.80;;;4.83;;
12267;SDS011;6196;48.398;11.736;2023-03-23T03:46:05;5.10;;;4.60;;
12267;SDS011;6196;48.398;11.736;2023-03-23T03:48:32;5.00;;;4.03;;
12267;SDS011;6196;48.398;11.736;2023-03-23T03:50:58;4.70;;;3.87;;
12267;SDS011;6196;48.398;11.736;2023-03-23T03:53:25;6.37;;;4.60;;
12267;SDS011;6196;48.398;11.736;2023-03-23T03:55:52;4.93;;;4.30;;
12267;SDS011;6196;48.398;11.736;2023-03-23T03:58:21;5.03;;;4.53;;
12267;SDS011;6196;48.398;11.736;2023-03-23T04:00:48;6.70;;;4.90;;
12267;SDS011;6196;48.398;11.736;2023-03-23T04:03:14;7.60;;;5.13;;
12267;SDS011;6196;48.398;11.736;2023-03-23T04:05:41;6.77;;;4.90;;
12267;SDS011;6196;48.398;11.736;2023-03-23T04:08:09;5.30;;;4.70;;
12267;SDS011;6196;48.398;11.736;2023-03-23T04:10:36;4.67;;;4.07;;
12267;SDS011;6196;48.398;11.736;2023-03-23T04:13:03;5.33;;;4.10;;
12267;SDS011;6196;48.398;11.736;2023-03-23T04:15:30;5.90;;;4.47;;
12267;SDS011;6196;48.398;11.736;2023-03-23T04:17:56;6.00;;;4.83;;
12267;SDS011;6196;48.398;11.736;2023-03-23T04:20:22;6.40;;;4.30;;
12267;SDS011;6196;48.398;11.736;2023-03-23T04:22:49;5.73;;;4.57;;
12267;SDS011;6196;48.398;11.736;2023-03-23T04:25:18;4.63;;;4.20;;
12267;SDS011;6196;48.398;11.736;2023-03-23T04:27:48;4.37;;;3.93;;
12267;SDS011;6196;48.398;11.736;2023-03-23T04:30:22;5.30;;;4.53;;
12267;SDS011;6196;48.398;11.736;2023-03-23T04:32:50;5.20;;;4.70;;
12267;SDS011;6196;48.398;11.736;2023-03-23T04:35:20;4.77;;;4.37;;
12267;SDS011;6196;48.398;11.736;2023-03-23T04:37:51;5.43;;;4.90;;
12267;SDS011;6196;48.398;11.736;2023-03-23T04:40:18;5.33;;;4.40;;
12267;SDS011;6196;48.398;11.736;2023-03-23T04:42:45;5.10;;;4.60;;
12267;SDS011;6196;48.398;11.736;2023-03-23T04:45:15;5.57;;;4.97;;
12267;SDS011;6196;48.398;11.736;2023-03-23T04:47:48;5.30;;;4.23;;
12267;SDS011;6196;48.398;11.736;2023-03-23T04:50:19;5.37;;;4.30;;
12267;SDS011;6196;48.398;11.736;2023-03-23T04:52:49;4.60;;;4.13;;
12267;SDS011;6196;48.398;11.736;2023-03-23T04:55:16;6.73;;;4.97;;
12267;SDS011;6196;48.398;11.736;2023-03-23T04:57:43;5.20;;;4.40;;
12267;SDS011;6196;48.398;11.736;2023-03-23T05:00:09;5.10;;;4.60;;
12267;SDS011;6196;48.398;11.736;2023-03-23T05:02:44;6.30;;;4.43;;
12267;SDS011;6196;48.398;11.736;2023-03-23T05:05:12;5.03;;;4.10;;
12267;SDS011;6196;48.398;11.736;2023-03-23T05:07:39;5.17;;;4.43;;
12267;SDS011;6196;48.398;11.736;2023-03-23T05:10:07;5.37;;;4.40;;
12267;SDS011;6196;48.398;11.736;2023-03-23T05:12:36;6.97;;;4.70;;
12267;SDS011;6196;48.398;11.736;2023-03-23T05:15:02;8.23;;;5.10;;
12267;SDS011;6196;48.398;11.736;2023-03-23T05:17:29;8.27;;;4.90;;
12267;SDS011;6196;48.398;11.736;2023-03-23T05:19:57;7.47;;;4.53;;
12267;SDS011;6196;48.398;11.736;2023-03-23T05:22:23;9.03;;;4.33;;
12267;SDS011;6196;48.398;11.736;2023-03-23T05:24:52;8.17;;;4.70;;
12267;SDS011;6196;48.398;11.736;2023-03-23T05:27:18;6.60;;;4.67;;
12267;SDS011;6196;48.398;11.736;2023-03-23T05:29:45;4.47;;;4.07;;
12267;SDS011;6196;48.398;11.736;2023-03-23T05:32:14;5.63;;;4.53;;
12267;SDS011;6196;48.398;11.736;2023-03-23T05:34:44;7.20;;;4.50;;
12267;SDS011;6196;48.398;11.736;2023-03-23T05:37:11;5.20;;;4.40;;
12267;SDS011;6196;48.398;11.736;2023-03-23T05:39:38;5.27;;;4.13;;
12267;SDS011;6196;48.398;11.736;2023-03-23T05:42:05;5.33;;;3.90;;
12267;SDS011;6196;48.398;11.736;2023-03-23T05:44:31;5.83;;;4.70;;
12267;SDS011;6196;48.398;11.736;2023-03-23T05:46:57;7.07;;;4.70;;
12267;SDS011;6196;48.398;11.736;2023-03-23T05:49:23;7.17;;;4.70;;
12267;SDS011;6196;48.398;11.736;2023-03-23T05:51:49;5.40;;;4.90;;
12267;SDS011;6196;48.398;11.736;2023-03-23T05:54:16;6.00;;;4.67;;
12267;SDS011;6196;48.398;11.736;2023-03-23T05:56:42;6.67;;;4.83;;
12267;SDS011;6196;48.398;11.736;2023-03-23T05:59:08;5.97;;;4.53;;
12267;SDS011;6196;48.398;11.736;2023-03-23T06:01:35;5.43;;;4.33;;
12267;SDS011;6196;48.398;11.736;2023-03-23T06:04:02;3.97;;;3.50;;
12267;SDS011;6196;48.398;11.736;2023-03-23T06:06:29;4.77;;;3.70;;
12267;SDS011;6196;48.398;11.736;2023-03-23T06:08:56;4.33;;;3.70;;
12267;SDS011;6196;48.398;11.736;2023-03-23T06:11:24;5.70;;;3.70;;
12267;SDS011;6196;48.398;11.736;2023-03-23T06:13:51;5.47;;;3.33;;
12267;SDS011;6196;48.398;11.736;2023-03-23T06:16:18;4.30;;;3.90;;
12267;SDS011;6196;48.398;11.736;2023-03-23T06:18:44;5.37;;;3.80;;
12267;SDS011;6196;48.398;11.736;2023-03-23T06:21:10;5.00;;;3.80;;
12267;SDS011;6196;48.398;11.736;2023-03-23T06:23:37;3.90;;;3.50;;
12267;SDS011;6196;48.398;11.736;2023-03-23T06:26:04;5.47;;;3.53;;
12267;SDS011;6196;48.398;11.736;2023-03-23T06:28:36;6.93;;;3.70;;
12267;SDS011;6196;48.398;11.736;2023-03-23T06:31:03;6.13;;;3.53;;
12267;SDS011;6196;48.398;11.736;2023-03-23T06:33:35;7.87;;;3.80;;
12267;SDS011;6196;48.398;11.736;2023-03-23T06:36:03;4.33;;;3.80;;
12267;SDS011;6196;48.398;11.736;2023-03-23T06:38:30;5.60;;;4.07;;
12267;SDS011;6196;48.398;11.736;2023-03-23T06:40:56;5.07;;;3.80;;
12267;SDS011;6196;48.398;11.736;2023-03-23T06:43:22;4.50;;;3.40;;
12267;SDS011;6196;48.398;11.736;2023-03-23T06:45:49;4.73;;;3.33;;
12267;SDS011;6196;48.398;11.736;2023-03-23T06:48:16;9.20;;;3.90;;
12267;SDS011;6196;48.398;11.736;2023-03-23T06:50:43;6.07;;;3.70;;
12267;SDS011;6196;48.398;11.736;2023-03-23T06:53:10;4.67;;;3.20;;
12267;SDS011;6196;48.398;11.736;2023-03-23T06:55:36;4.93;;;3.30;;
12267;SDS011;6196;48.398;11.736;2023-03-23T06:58:03;5.23;;;3.10;;
12267;SDS011;6196;48.398;11.736;2023-03-23T07:00:33;3.30;;;3.00;;
12267;SDS011;6196;48.398;11.736;2023-03-23T07:02:59;5.47;;;3.30;;
12267;SDS011;6196;48.398;11.736;2023-03-23T07:05:25;5.47;;;2.90;;
12267;SDS011;6196;48.398;11.736;2023-03-23T07:07:51;5.10;;;3.00;;
12267;SDS011;6196;48.398;11.736;2023-03-23T07:10:17;4.43;;;3.00;;
12267;SDS011;6196;48.398;11.736;2023-03-23T07:12:43;3.70;;;2.90;;
12267;SDS011;6196;48.398;11.736;2023-03-23T07:15:09;4.83;;;3.20;;
12267;SDS011;6196;48.398;11.736;2023-03-23T07:17:36;5.00;;;2.73;;
12267;SDS011;6196;48.398;11.736;2023-03-23T07:20:03;3.87;;;2.70;;
12267;SDS011;6196;48.398;11.736;2023-03-23T07:22:30;4.97;;;3.20;;
12267;SDS011;6196;48.398;11.736;2023-03-23T07:24:56;4.13;;;2.90;;
12267;SDS011;6196;48.398;11.736;2023-03-23T07:27:22;4.73;;;3.50;;
12267;SDS011;6196;48.398;11.736;2023-03-23T07:29:48;5.53;;;3.83;;
12267;SDS011;6196;48.398;11.736;2023-03-23T07:32:14;4.87;;;3.17;;
12267;SDS011;6196;48.398;11.736;2023-03-23T07:34:40;5.90;;;3.00;;
12267;SDS011;6196;48.398;11.736;2023-03-23T07:37:06;6.53;;;3.40;;
12267;SDS011;6196;48.398;11.736;2023-03-23T07:39:32;3.73;;;2.87;;
12267;SDS011;6196;48.398;11.736;2023-03-23T07:41:59;2.97;;;2.57;;
12267;SDS011;6196;48.398;11.736;2023-03-23T07:44:25;3.43;;;2.57;;
12267;SDS011;6196;48.398;11.736;2023-03-23T07:46:51;4.50;;;3.10;;
12267;SDS011;6196;48.398;11.736;2023-03-23T07:49:17;7.47;;;3.33;;
12267;SDS011;6196;48.398;11.736;2023-03-23T07:51:43;5.53;;;3.10;;
12267;SDS011;6196;48.398;11.736;2023-03-23T07:54:10;5.57;;;2.80;;
12267;SDS011;6196;48.398;11.736;2023-03-23T07:56:37;3.73;;;2.73;;
12267;SDS011;6196;48.398;11.736;2023-03-23T07:59:05;3.93;;;3.03;;
12267;SDS011;6196;48.398;11.736;2023-03-23T08:01:32;5.50;;;4.40;;
12267;SDS011;6196;48.398;11.736;2023-03-23T08:03:58;7.93;;;3.70;;
12267;SDS011;6196;48.398;11.736;2023-03-23T08:06:25;3.27;;;2.80;;
12267;SDS011;6196;48.398;11.736;2023-03-23T08:08:52;4.20;;;2.80;;
12267;SDS011;6196;48.398;11.736;2023-03-23T08:11:19;4.27;;;3.30;;
12267;SDS011;6196;48.398;11.736;2023-03-23T08:13:45;6.00;;;2.93;;
12267;SDS011;6196;48.398;11.736;2023-03-23T08:16:12;5.97;;;2.90;;
12267;SDS011;6196;48.398;11.736;2023-03-23T08:18:38;4.23;;;2.90;;
12267;SDS011;6196;48.398;11.736;2023-03-23T08:21:05;5.80;;;3.20;;
12267;SDS011;6196;48.398;11.736;2023-03-23T08:23:34;3.83;;;2.80;;
12267;SDS011;6196;48.398;11.736;2023-03-23T08:26:05;4.17;;;3.10;;
12267;SDS011;6196;48.398;11.736;2023-03-23T08:28:35;3.97;;;2.73;;
12267;SDS011;6196;48.398;11.736;2023-03-23T08:31:06;6.57;;;3.20;;
12267;SDS011;6196;48.398;11.736;2023-03-23T08:33:35;4.30;;;3.27;;
12267;SDS011;6196;48.398;11.736;2023-03-23T08:36:02;3.30;;;3.00;;
12267;SDS011;6196;48.398;11.736;2023-03-23T08:38:29;4.33;;;3.10;;
12267;SDS011;6196;48.398;11.736;2023-03-23T08:40:59;7.37;;;3.30;;
12267;SDS011;6196;48.398;11.736;2023-03-23T08:43:29;6.10;;;3.20;;
12267;SDS011;6196;48.398;11.736;2023-03-23T08:45:59;4.37;;;2.90;;
12267;SDS011;6196;48.398;11.736;2023-03-23T08:48:26;4.43;;;2.80;;
12267;SDS011;6196;48.398;11.736;2023-03-23T08:50:51;3.90;;;2.87;;
12267;SDS011;6196;48.398;11.736;2023-03-23T08:53:18;3.90;;;3.00;;
12267;SDS011;6196;48.398;11.736;2023-03-23T08:55:46;4.13;;;2.83;;
12267;SDS011;6196;48.398;11.736;2023-03-23T08:58:14;2.63;;;2.37;;
12267;SDS011;6196;48.398;11.736;2023-03-23T09:00:40;4.33;;;2.77;;
12267;SDS011;6196;48.398;11.736;2023-03-23T09:03:05;4.60;;;2.97;;
12267;SDS011;6196;48.398;11.736;2023-03-23T09:05:32;6.73;;;2.70;;
12267;SDS011;6196;48.398;11.736;2023-03-23T09:07:58;4.53;;;2.80;;
12267;SDS011;6196;48.398;11.736;2023-03-23T09:10:24;5.13;;;2.87;;
12267;SDS011;6196;48.398;11.736;2023-03-23T09:12:53;3.73;;;2.53;;
12267;SDS011;6196;48.398;11.736;2023-03-23T09:15:20;7.20;;;2.67;;
12267;SDS011;6196;48.398;11.736;2023-03-23T09:17:48;6.13;;;2.87;;
12267;SDS011;6196;48.398;11.736;2023-03-23T09:20:17;3.43;;;2.30;;
12267;SDS011;6196;48.398;11.736;2023-03-23T09:22:47;5.37;;;2.47;;
12267;SDS011;6196;48.398;11.736;2023-03-23T09:25:17;2.60;;;2.40;;
12267;SDS011;6196;48.398;11.736;2023-03-23T09:27:50;2.97;;;2.27;;
12267;SDS011;6196;48.398;11.736;2023-03-23T09:30:21;5.57;;;2.37;;
12267;SDS011;6196;48.398;11.736;2023-03-23T09:32:56;8.17;;;2.57;;
12267;SDS011;6196;48.398;11.736;2023-03-23T09:35:22;4.10;;;2.00;;
12267;SDS011;6196;48.398;11.736;2023-03-23T09:37:50;3.83;;;2.30;;
12267;SDS011;6196;48.398;11.736;2023-03-23T09:40:19;4.93;;;2.40;;
12267;SDS011;6196;48.398;11.736;2023-03-23T09:56:42;4.77;;;1.60;;
12267;SDS011;6196;48.398;11.736;2023-03-23T09:59:12;2.93;;;2.03;;
12267;SDS011;6196;48.398;11.736;2023-03-23T10:01:57;2.07;;;1.70;;
12267;SDS011;6196;48.398;11.736;2023-03-23T10:04:52;3.33;;;1.93;;
12267;SDS011;6196;48.398;11.736;2023-03-23T10:07:23;3.63;;;1.70;;
12267;SDS011;6196;48.398;11.736;2023-03-23T10:09:55;2.83;;;2.03;;
12267;SDS011;6196;48.398;11.736;2023-03-23T10:12:48;2.93;;;1.60;;
12267;SDS011;6196;48.398;11.736;2023-03-23T10:15:42;2.30;;;1.70;;
12267;SDS011;6196;48.398;11.736;2023-03-23T10:18:12;3.70;;;2.00;;
12267;SDS011;6196;48.398;11.736;2023-03-23T10:20:53;3.70;;;1.70;;
12267;SDS011;6196;48.398;11.736;2023-03-23T10:27:40;2.90;;;2.03;;
12267;SDS011;6196;48.398;11.736;2023-03-23T10:32:41;2.47;;;1.80;;
12267;SDS011;6196;48.398;11.736;2023-03-23T10:35:17;5.20;;;2.00;;
12267;SDS011;6196;48.398;11.736;2023-03-23T10:38:14;2.13;;;1.83;;
12267;SDS011;6196;48.398;11.736;2023-03-23T10:41:09;2.47;;;2.03;;
12267;SDS011;6196;48.398;11.736;2023-03-23T10:43:38;2.30;;;1.90;;
12267;SDS011;6196;48.398;11.736;2023-03-23T10:46:14;3.50;;;1.90;;
12267;SDS011;6196;48.398;11.736;2023-03-23T10:48:58;2.53;;;2.00;;
12267;SDS011;6196;48.398;11.736;2023-03-23T10:51:30;2.10;;;1.87;;
12267;SDS011;6196;48.398;11.736;2023-03-23T10:54:04;2.10;;;1.87;;
12267;SDS011;6196;48.398;11.736;2023-03-23T10:56:35;2.13;;;1.80;;
12267;SDS011;6196;48.398;11.736;2023-03-23T10:59:11;3.13;;;1.90;;
12267;SDS011;6196;48.398;11.736;2023-03-23T11:01:48;3.20;;;1.70;;
12267;SDS011;6196;48.398;11.736;2023-03-23T11:04:18;4.27;;;1.93;;
12267;SDS011;6196;48.398;11.736;2023-03-23T11:06:46;2.50;;;2.10;;
12267;SDS011;6196;48.398;11.736;2023-03-23T11:09:33;2.07;;;1.80;;
12267;SDS011;6196;48.398;11.736;2023-03-23T11:12:02;1.90;;;1.70;;
12267;SDS011;6196;48.398;11.736;2023-03-23T11:14:30;2.77;;;1.80;;
12267;SDS011;6196;48.398;11.736;2023-03-23T11:17:03;2.87;;;2.30;;
12267;SDS011;6196;48.398;11.736;2023-03-23T11:19:43;2.03;;;1.83;;
12267;SDS011;6196;48.398;11.736;2023-03-23T11:22:14;3.63;;;2.00;;
12267;SDS011;6196;48.398;11.736;2023-03-23T11:24:55;2.33;;;1.90;;
12267;SDS011;6196;48.398;11.736;2023-03-23T11:27:28;2.97;;;2.20;;
12267;SDS011;6196;48.398;11.736;2023-03-23T11:30:08;5.05;;;2.15;;
12267;SDS011;6196;48.398;11.736;2023-03-23T11:32:45;2.07;;;1.87;;
12267;SDS011;6196;48.398;11.736;2023-03-23T11:35:17;2.27;;;1.70;;
12267;SDS011;6196;48.398;11.736;2023-03-23T11:37:52;3.40;;;1.73;;
12267;SDS011;6196;48.398;11.736;2023-03-23T11:40:25;2.10;;;1.90;;
12267;SDS011;6196;48.398;11.736;2023-03-23T11:42:58;4.60;;;1.57;;
12267;SDS011;6196;48.398;11.736;2023-03-23T11:45:39;2.87;;;1.80;;
12267;SDS011;6196;48.398;11.736;2023-03-23T11:51:29;2.03;;;1.10;;
12267;SDS011;6196;48.398;11.736;2023-03-23T11:54:20;2.67;;;1.07;;
12267;SDS011;6196;48.398;11.736;2023-03-23T11:57:09;4.10;;;1.40;;
12267;SDS011;6196;48.398;11.736;2023-03-23T11:59:40;2.97;;;1.20;;
12267;SDS011;6196;48.398;11.736;2023-03-23T12:10:54;2.73;;;1.20;;
12267;SDS011;6196;48.398;11.736;2023-03-23T12:16:30;1.73;;;1.20;;
12267;SDS011;6196;48.398;11.736;2023-03-23T12:19:20;1.47;;;1.37;;
12267;SDS011;6196;48.398;11.736;2023-03-23T12:22:05;1.50;;;1.40;;
12267;SDS011;6196;48.398;11.736;2023-03-23T12:28:00;2.83;;;1.40;;
12267;SDS011;6196;48.398;11.736;2023-03-23T12:42:27;1.77;;;1.10;;
12267;SDS011;6196;48.398;11.736;2023-03-23T12:48:29;1.23;;;1.10;;
12267;SDS011;6196;48.398;11.736;2023-03-23T12:59:39;3.10;;;1.30;;
12267;SDS011;6196;48.398;11.736;2023-03-23T13:02:22;2.17;;;1.50;;
12267;SDS011;6196;48.398;11.736;2023-03-23T13:05:09;2.80;;;1.70;;
12267;SDS011;6196;48.398;11.736;2023-03-23T13:07:52;2.13;;;1.50;;
12267;SDS011;6196;48.398;11.736;2023-03-23T13:10:34;1.60;;;1.43;;
12267;SDS011;6196;48.398;11.736;2023-03-23T13:13:13;3.03;;;1.33;;
12267;SDS011;6196;48.398;11.736;2023-03-23T13:19:01;1.73;;;1.40;;
12267;SDS011;6196;48.398;11.736;2023-03-23T13:25:13;1.77;;;1.40;;
12267;SDS011;6196;48.398;11.736;2023-03-23T13:27:44;3.60;;;1.50;;
12267;SDS011;6196;48.398;11.736;2023-03-23T13:30:26;2.93;;;1.50;;
12267;SDS011;6196;48.398;11.736;2023-03-23T13:33:01;2.27;;;1.60;;
12267;SDS011;6196;48.398;11.736;2023-03-23T13:35:33;1.67;;;1.50;;
12267;SDS011;6196;48.398;11.736;2023-03-23T13:38:10;3.03;;;1.47;;
12267;SDS011;6196;48.398;11.736;2023-03-23T13:40:44;1.73;;;1.40;;
12267;SDS011;6196;48.398;11.736;2023-03-23T13:43:11;4.23;;;1.87;;
12267;SDS011;6196;48.398;11.736;2023-03-23T13:45:45;3.57;;;1.63;;
12267;SDS011;6196;48.398;11.736;2023-03-23T13:50:51;3.80;;;1.87;;
12267;SDS011;6196;48.398;11.736;2023-03-23T13:56:34;3.60;;;1.47;;
12267;SDS011;6196;48.398;11.736;2023-03-23T13:59:13;1.90;;;1.30;;
12267;SDS011;6196;48.398;11.736;2023-03-23T14:01:52;2.33;;;1.50;;
12267;SDS011;6196;48.398;11.736;2023-03-23T14:04:20;1.47;;;1.20;;
12267;SDS011;6196;48.398;11.736;2023-03-23T14:06:49;2.53;;;1.30;;
12267;SDS011;6196;48.398;11.736;2023-03-23T14:09:29;1.50;;;1.30;;
12267;SDS011;6196;48.398;11.736;2023-03-23T14:12:12;1.50;;;1.40;;
12267;SDS011;6196;48.398;11.736;2023-03-23T14:14:55;2.03;;;1.53;;
12267;SDS011;6196;48.398;11.736;2023-03-23T14:17:29;3.17;;;1.37;;
12267;SDS011;6196;48.398;11.736;2023-03-23T14:20:04;2.17;;;1.53;;
12267;SDS011;6196;48.398;11.736;2023-03-23T14:22:32;2.47;;;1.40;;
12267;SDS011;6196;48.398;11.736;2023-03-23T14:25:07;3.87;;;1.57;;
12267;SDS011;6196;48.398;11.736;2023-03-23T14:27:38;1.90;;;1.60;;
12267;SDS011;6196;48.398;11.736;2023-03-23T14:30:07;3.43;;;1.47;;
12267;SDS011;6196;48.398;11.736;2023-03-23T14:32:39;4.67;;;1.67;;
12267;SDS011;6196;48.398;11.736;2023-03-23T14:35:07;4.67;;;1.67;;
12267;SDS011;6196;48.398;11.736;2023-03-23T14:37:42;3.10;;;1.50;;
12267;SDS011;6196;48.398;11.736;2023-03-23T14:40:13;3.73;;;1.70;;
12267;SDS011;6196;48.398;11.736;2023-03-23T14:42:42;4.00;;;1.60;;
12267;SDS011;6196;48.398;11.736;2023-03-23T14:45:18;3.93;;;1.73;;
12267;SDS011;6196;48.398;11.736;2023-03-23T14:47:50;1.80;;;1.50;;
12267;SDS011;6196;48.398;11.736;2023-03-23T14:50:25;4.40;;;1.70;;
12267;SDS011;6196;48.398;11.736;2023-03-23T14:55:59;3.43;;;1.93;;
12267;SDS011;6196;48.398;11.736;2023-03-23T14:58:38;4.27;;;1.50;;
12267;SDS011;6196;48.398;11.736;2023-03-23T15:01:19;5.37;;;1.60;;
12267;SDS011;6196;48.398;11.736;2023-03-23T15:03:59;1.97;;;1.47;;
12267;SDS011;6196;48.398;11.736;2023-03-23T15:06:36;2.87;;;1.53;;
12267;SDS011;6196;48.398;11.736;2023-03-23T15:09:06;1.30;;;1.20;;
12267;SDS011;6196;48.398;11.736;2023-03-23T15:11:38;2.40;;;1.37;;
12267;SDS011;6196;48.398;11.736;2023-03-23T15:14:13;2.23;;;1.60;;
12267;SDS011;6196;48.398;11.736;2023-03-23T15:16:49;3.03;;;1.70;;
12267;SDS011;6196;48.398;11.736;2023-03-23T15:19:41;3.40;;;1.50;;
12267;SDS011;6196;48.398;11.736;2023-03-23T15:22:27;3.03;;;1.50;;
12267;SDS011;6196;48.398;11.736;2023-03-23T15:25:29;3.63;;;1.37;;
12267;SDS011;6196;48.398;11.736;2023-03-23T15:27:57;2.30;;;1.57;;
12267;SDS011;6196;48.398;11.736;2023-03-23T15:30:33;4.00;;;1.60;;
12267;SDS011;6196;48.398;11.736;2023-03-23T15:33:11;1.50;;;1.40;;
12267;SDS011;6196;48.398;11.736;2023-03-23T15:35:44;1.53;;;1.40;;
12267;SDS011;6196;48.398;11.736;2023-03-23T15:38:23;2.00;;;1.33;;
12267;SDS011;6196;48.398;11.736;2023-03-23T15:40:52;3.43;;;1.70;;
12267;SDS011;6196;48.398;11.736;2023-03-23T15:43:22;2.13;;;1.57;;
12267;SDS011;6196;48.398;11.736;2023-03-23T15:45:59;2.63;;;1.60;;
12267;SDS011;6196;48.398;11.736;2023-03-23T15:51:15;4.60;;;1.70;;
12267;SDS011;6196;48.398;11.736;2023-03-23T15:53:43;2.40;;;1.77;;
12267;SDS011;6196;48.398;11.736;2023-03-23T15:56:10;2.33;;;1.70;;
12267;SDS011;6196;48.398;11.736;2023-03-23T15:58:39;2.80;;;2.13;;
12267;SDS011;6196;48.398;11.736;2023-03-23T16:03:52;4.27;;;2.13;;
12267;SDS011;6196;48.398;11.736;2023-03-23T16:06:23;2.37;;;1.70;;
12267;SDS011;6196;48.398;11.736;2023-03-23T16:08:53;3.07;;;1.87;;
12267;SDS011;6196;48.398;11.736;2023-03-23T16:11:21;3.17;;;1.87;;
12267;SDS011;6196;48.398;11.736;2023-03-23T16:13:51;3.43;;;1.80;;
12267;SDS011;6196;48.398;11.736;2023-03-23T16:16:34;4.10;;;2.27;;
12267;SDS011;6196;48.398;11.736;2023-03-23T16:19:12;4.03;;;2.10;;
12267;SDS011;6196;48.398;11.736;2023-03-23T16:21:41;4.47;;;1.90;;
12267;SDS011;6196;48.398;11.736;2023-03-23T16:24:08;3.73;;;1.80;;
12267;SDS011;6196;48.398;11.736;2023-03-23T16:26:35;3.13;;;2.00;;
12267;SDS011;6196;48.398;11.736;2023-03-23T16:29:09;3.00;;;1.97;;
12267;SDS011;6196;48.398;11.736;2023-03-23T16:31:54;2.33;;;2.00;;
12267;SDS011;6196;48.398;11.736;2023-03-23T16:34:21;3.73;;;2.13;;
12267;SDS011;6196;48.398;11.736;2023-03-23T16:36:48;5.87;;;2.30;;
12267;SDS011;6196;48.398;11.736;2023-03-23T16:39:15;4.07;;;2.10;;
12267;SDS011;6196;48.398;11.736;2023-03-23T16:41:44;5.30;;;2.00;;
12267;SDS011;6196;48.398;11.736;2023-03-23T16:44:11;2.67;;;1.90;;
12267;SDS011;6196;48.398;11.736;2023-03-23T16:46:38;2.17;;;1.97;;
12267;SDS011;6196;48.398;11.736;2023-03-23T16:49:05;4.23;;;2.23;;
12267;SDS011;6196;48.398;11.736;2023-03-23T16:51:32;8.57;;;2.00;;
12267;SDS011;6196;48.398;11.736;2023-03-23T16:53:59;5.00;;;1.73;;
12267;SDS011;6196;48.398;11.736;2023-03-23T16:56:26;5.50;;;2.37;;
12267;SDS011;6196;48.398;11.736;2023-03-23T16:58:53;4.63;;;2.00;;
12267;SDS011;6196;48.398;11.736;2023-03-23T17:01:19;3.20;;;2.30;;